sensor_id;sensor_type;location;lat;lon;timestamp;temperature;humidity
7016;DHT22;3548;48.402;9.990;2022-10-13T00:00:31;10.80;99.90
7016;DHT22;3548;48.402;9.990;2022-10-13T00:03:00;10.80;99.90
7016;DHT22;3548;48.402;9.990;2022-10-13T00:05:27;10.80;99.90
7016;DHT22;3548;48.402;9.990;2022-10-13T00:07:52;10.80;99.90
7016;DHT22;3548;48.402;9.990;2022-10-13T00:10:21;10.80;99.90
7016;DHT22;3548;48.402;9.990;2022-10-13T00:12:47;10.80;99.90
7016;DHT22;3548;48.402;9.990;2022-10-13T00:15:12;10.80;99.90
7016;DHT22;3548;48.402;9.990;2022-10-13T00:17:38;10.80;99.90
7016;DHT22;3548;48.402;9.990;2022-10-13T00:20:05;10.80;99.90
7016;DHT22;3548;48.402;9.990;2022-10-13T00:22:30;10.80;99.90
7016;DHT22;3548;48.402;9.990;2022-10-13T00:24:56;10.80;99.90
7016;DHT22;3548;48.402;9.990;2022-10-13T00:27:22;10.80;99.90
7016;DHT22;3548;48.402;9.990;2022-10-13T00:29:47;10.80;99.90
7016;DHT22;3548;48.402;9.990;2022-10-13T00:32:13;10.80;99.90
7016;DHT22;3548;48.402;9.990;2022-10-13T00:34:39;10.80;99.90
7016;DHT22;3548;48.402;9.990;2022-10-13T00:37:05;10.80;99.90
7016;DHT22;3548;48.402;9.990;2022-10-13T00:39:30;10.80;99.90
7016;DHT22;3548;48.402;9.990;2022-10-13T00:41:59;10.80;99.90
7016;DHT22;3548;48.402;9.990;2022-10-13T00:47:50;10.80;99.90
7016;DHT22;3548;48.402;9.990;2022-10-13T00:50:22;10.80;99.90
7016;DHT22;3548;48.402;9.990;2022-10-13T00:52:48;10.80;99.90
7016;DHT22;3548;48.402;9.990;2022-10-13T00:55:19;10.80;99.90
7016;DHT22;3548;48.402;9.990;2022-10-13T00:57:47;10.80;99.90
7016;DHT22;3548;48.402;9.990;2022-10-13T01:00:20;10.80;99.90
7016;DHT22;3548;48.402;9.990;2022-10-13T01:02:46;10.80;99.90
7016;DHT22;3548;48.402;9.990;2022-10-13T01:05:11;10.80;99.90
7016;DHT22;3548;48.402;9.990;2022-10-13T01:07:37;10.70;99.90
7016;DHT22;3548;48.402;9.990;2022-10-13T01:10:03;10.70;99.90
7016;DHT22;3548;48.402;9.990;2022-10-13T01:12:41;10.70;99.90
7016;DHT22;3548;48.402;9.990;2022-10-13T01:15:21;10.60;99.90
7016;DHT22;3548;48.402;9.990;2022-10-13T01:21:01;10.50;99.90
7016;DHT22;3548;48.402;9.990;2022-10-13T01:23:41;10.50;99.90
7016;DHT22;3548;48.402;9.990;2022-10-13T01:29:07;10.50;99.90
7016;DHT22;3548;48.402;9.990;2022-10-13T01:34:33;10.50;99.90
7016;DHT22;3548;48.402;9.990;2022-10-13T01:37:14;10.50;99.90
7016;DHT22;3548;48.402;9.990;2022-10-13T01:39:55;10.50;99.90
7016;DHT22;3548;48.402;9.990;2022-10-13T01:42:32;10.50;99.90
7016;DHT22;3548;48.402;9.990;2022-10-13T01:45:00;10.50;99.90
7016;DHT22;3548;48.402;9.990;2022-10-13T01:47:28;10.50;99.90
7016;DHT22;3548;48.402;9.990;2022-10-13T01:49:55;10.50;99.90
7016;DHT22;3548;48.402;9.990;2022-10-13T01:52:23;10.50;99.90
7016;DHT22;3548;48.402;9.990;2022-10-13T01:54:51;10.50;99.90
7016;DHT22;3548;48.402;9.990;2022-10-13T01:57:32;10.50;99.90
7016;DHT22;3548;48.402;9.990;2022-10-13T02:00:00;10.50;99.90
7016;DHT22;3548;48.402;9.990;2022-10-13T02:02:58;10.50;99.90
7016;DHT22;3548;48.402;9.990;2022-10-13T02:08:09;10.50;99.90
7016;DHT22;3548;48.402;9.990;2022-10-13T02:13:13;10.40;99.90
7016;DHT22;3548;48.402;9.990;2022-10-13T02:15:43;10.30;99.90
7016;DHT22;3548;48.402;9.990;2022-10-13T02:18:12;10.30;99.90
7016;DHT22;3548;48.402;9.990;2022-10-13T02:20:40;10.30;99.90
7016;DHT22;3548;48.402;9.990;2022-10-13T02:23:11;10.20;99.90
7016;DHT22;3548;48.402;9.990;2022-10-13T02:25:37;10.10;99.90
7016;DHT22;3548;48.402;9.990;2022-10-13T02:28:04;10.10;99.90
7016;DHT22;3548;48.402;9.990;2022-10-13T02:30:31;10.10;99.90
7016;DHT22;3548;48.402;9.990;2022-10-13T02:32:58;10.00;99.90
7016;DHT22;3548;48.402;9.990;2022-10-13T02:35:24;10.00;99.90
7016;DHT22;3548;48.402;9.990;2022-10-13T02:37:50;10.00;99.90
7016;DHT22;3548;48.402;9.990;2022-10-13T02:40:15;10.00;99.90
7016;DHT22;3548;48.402;9.990;2022-10-13T02:42:41;10.00;99.90
7016;DHT22;3548;48.402;9.990;2022-10-13T02:45:07;10.00;99.90
7016;DHT22;3548;48.402;9.990;2022-10-13T02:47:33;10.00;99.90
7016;DHT22;3548;48.402;9.990;2022-10-13T02:49:58;10.00;99.90
7016;DHT22;3548;48.402;9.990;2022-10-13T02:52:24;10.00;99.90
7016;DHT22;3548;48.402;9.990;2022-10-13T02:54:49;10.00;99.90
7016;DHT22;3548;48.402;9.990;2022-10-13T02:57:16;10.00;99.90
7016;DHT22;3548;48.402;9.990;2022-10-13T02:59:42;10.00;99.90
7016;DHT22;3548;48.402;9.990;2022-10-13T03:02:08;10.00;99.90
7016;DHT22;3548;48.402;9.990;2022-10-13T03:04:33;10.00;99.90
7016;DHT22;3548;48.402;9.990;2022-10-13T03:06:59;10.00;99.90
7016;DHT22;3548;48.402;9.990;2022-10-13T03:09:24;10.00;99.90
7016;DHT22;3548;48.402;9.990;2022-10-13T03:11:50;10.00;99.90
7016;DHT22;3548;48.402;9.990;2022-10-13T03:14:15;10.00;99.90
7016;DHT22;3548;48.402;9.990;2022-10-13T03:16:41;10.00;99.90
7016;DHT22;3548;48.402;9.990;2022-10-13T03:19:06;10.10;99.90
7016;DHT22;3548;48.402;9.990;2022-10-13T03:21:32;10.10;99.90
7016;DHT22;3548;48.402;9.990;2022-10-13T03:23:57;10.10;99.90
7016;DHT22;3548;48.402;9.990;2022-10-13T03:26:23;10.10;99.90
7016;DHT22;3548;48.402;9.990;2022-10-13T03:28:49;10.20;99.90
7016;DHT22;3548;48.402;9.990;2022-10-13T03:31:16;10.20;99.90
7016;DHT22;3548;48.402;9.990;2022-10-13T03:33:42;10.20;99.90
7016;DHT22;3548;48.402;9.990;2022-10-13T03:36:09;10.20;99.90
7016;DHT22;3548;48.402;9.990;2022-10-13T03:38:35;10.20;99.90
7016;DHT22;3548;48.402;9.990;2022-10-13T03:41:09;10.20;99.90
7016;DHT22;3548;48.402;9.990;2022-10-13T03:43:35;10.20;99.90
7016;DHT22;3548;48.402;9.990;2022-10-13T03:46:02;10.20;99.90
7016;DHT22;3548;48.402;9.990;2022-10-13T03:48:28;10.20;99.90
7016;DHT22;3548;48.402;9.990;2022-10-13T03:50:54;10.30;99.90
7016;DHT22;3548;48.402;9.990;2022-10-13T03:53:20;10.30;99.90
7016;DHT22;3548;48.402;9.990;2022-10-13T03:55:50;10.30;99.90
7016;DHT22;3548;48.402;9.990;2022-10-13T03:58:16;10.30;99.90
7016;DHT22;3548;48.402;9.990;2022-10-13T04:00:42;10.40;99.90
7016;DHT22;3548;48.402;9.990;2022-10-13T04:03:08;10.40;99.90
7016;DHT22;3548;48.402;9.990;2022-10-13T04:05:33;10.50;99.90
7016;DHT22;3548;48.402;9.990;2022-10-13T04:07:59;10.50;99.90
7016;DHT22;3548;48.402;9.990;2022-10-13T04:10:25;10.60;99.90
7016;DHT22;3548;48.402;9.990;2022-10-13T04:12:50;10.60;99.90
7016;DHT22;3548;48.402;9.990;2022-10-13T04:15:16;10.60;99.90
7016;DHT22;3548;48.402;9.990;2022-10-13T04:17:41;10.70;99.90
7016;DHT22;3548;48.402;9.990;2022-10-13T04:20:07;10.70;99.90
7016;DHT22;3548;48.402;9.990;2022-10-13T04:22:33;10.70;99.90
7016;DHT22;3548;48.402;9.990;2022-10-13T04:24:59;10.80;99.90
7016;DHT22;3548;48.402;9.990;2022-10-13T04:27:24;10.80;99.90
7016;DHT22;3548;48.402;9.990;2022-10-13T04:29:51;10.80;99.90
7016;DHT22;3548;48.402;9.990;2022-10-13T04:32:17;10.80;99.90
7016;DHT22;3548;48.402;9.990;2022-10-13T04:34:42;10.80;99.90
7016;DHT22;3548;48.402;9.990;2022-10-13T04:37:08;10.80;99.90
7016;DHT22;3548;48.402;9.990;2022-10-13T04:39:33;10.80;99.90
7016;DHT22;3548;48.402;9.990;2022-10-13T04:41:59;10.80;99.90
7016;DHT22;3548;48.402;9.990;2022-10-13T04:44:24;10.80;99.90
7016;DHT22;3548;48.402;9.990;2022-10-13T04:46:50;10.80;99.90
7016;DHT22;3548;48.402;9.990;2022-10-13T04:49:16;10.80;99.90
7016;DHT22;3548;48.402;9.990;2022-10-13T04:51:42;10.80;99.90
7016;DHT22;3548;48.402;9.990;2022-10-13T04:54:07;10.80;99.90
7016;DHT22;3548;48.402;9.990;2022-10-13T04:56:34;10.90;99.90
7016;DHT22;3548;48.402;9.990;2022-10-13T04:58:59;10.90;99.90
7016;DHT22;3548;48.402;9.990;2022-10-13T05:01:25;11.00;99.90
7016;DHT22;3548;48.402;9.990;2022-10-13T05:03:56;11.00;99.90
7016;DHT22;3548;48.402;9.990;2022-10-13T05:06:25;11.00;99.90
7016;DHT22;3548;48.402;9.990;2022-10-13T05:08:51;11.10;99.90
7016;DHT22;3548;48.402;9.990;2022-10-13T05:11:17;11.10;99.90
7016;DHT22;3548;48.402;9.990;2022-10-13T05:13:45;11.10;99.90
7016;DHT22;3548;48.402;9.990;2022-10-13T05:16:13;11.20;99.90
7016;DHT22;3548;48.402;9.990;2022-10-13T05:18:39;11.20;99.90
7016;DHT22;3548;48.402;9.990;2022-10-13T05:21:10;11.20;99.90
7016;DHT22;3548;48.402;9.990;2022-10-13T05:23:36;11.20;99.90
7016;DHT22;3548;48.402;9.990;2022-10-13T05:26:05;11.20;99.90
7016;DHT22;3548;48.402;9.990;2022-10-13T05:28:31;11.20;99.90
7016;DHT22;3548;48.402;9.990;2022-10-13T05:31:17;11.20;99.90
7016;DHT22;3548;48.402;9.990;2022-10-13T05:33:43;11.20;99.90
7016;DHT22;3548;48.402;9.990;2022-10-13T05:36:24;11.30;99.90
7016;DHT22;3548;48.402;9.990;2022-10-13T05:38:51;11.30;99.90
7016;DHT22;3548;48.402;9.990;2022-10-13T05:41:17;11.30;99.90
7016;DHT22;3548;48.402;9.990;2022-10-13T05:43:43;11.30;99.90
7016;DHT22;3548;48.402;9.990;2022-10-13T05:46:09;11.30;99.90
7016;DHT22;3548;48.402;9.990;2022-10-13T05:48:36;11.30;99.90
7016;DHT22;3548;48.402;9.990;2022-10-13T05:51:23;11.30;99.90
7016;DHT22;3548;48.402;9.990;2022-10-13T05:54:06;11.40;99.90
7016;DHT22;3548;48.402;9.990;2022-10-13T05:56:39;11.40;99.90
7016;DHT22;3548;48.402;9.990;2022-10-13T05:59:07;11.40;99.90
7016;DHT22;3548;48.402;9.990;2022-10-13T06:01:36;11.40;99.90
7016;DHT22;3548;48.402;9.990;2022-10-13T06:04:07;11.40;99.90
7016;DHT22;3548;48.402;9.990;2022-10-13T06:06:33;11.50;99.90
7016;DHT22;3548;48.402;9.990;2022-10-13T06:08:59;11.50;99.90
7016;DHT22;3548;48.402;9.990;2022-10-13T06:11:25;11.50;99.90
7016;DHT22;3548;48.402;9.990;2022-10-13T06:13:51;11.50;99.90
7016;DHT22;3548;48.402;9.990;2022-10-13T06:16:16;11.60;99.90
7016;DHT22;3548;48.402;9.990;2022-10-13T06:18:42;11.60;99.90
7016;DHT22;3548;48.402;9.990;2022-10-13T06:21:08;11.60;99.90
7016;DHT22;3548;48.402;9.990;2022-10-13T06:23:33;11.60;99.90
7016;DHT22;3548;48.402;9.990;2022-10-13T06:25:59;11.60;99.90
7016;DHT22;3548;48.402;9.990;2022-10-13T06:28:26;11.60;99.90
7016;DHT22;3548;48.402;9.990;2022-10-13T06:30:51;11.60;99.90
7016;DHT22;3548;48.402;9.990;2022-10-13T06:33:24;11.70;99.90
7016;DHT22;3548;48.402;9.990;2022-10-13T06:35:51;11.70;99.90
7016;DHT22;3548;48.402;9.990;2022-10-13T06:38:17;11.70;99.90
7016;DHT22;3548;48.402;9.990;2022-10-13T06:40:43;11.70;99.90
7016;DHT22;3548;48.402;9.990;2022-10-13T06:43:08;11.80;99.90
7016;DHT22;3548;48.402;9.990;2022-10-13T06:45:34;11.80;99.90
7016;DHT22;3548;48.402;9.990;2022-10-13T06:48:00;11.90;99.90
7016;DHT22;3548;48.402;9.990;2022-10-13T06:50:26;11.90;99.90
7016;DHT22;3548;48.402;9.990;2022-10-13T06:52:51;12.00;99.90
7016;DHT22;3548;48.402;9.990;2022-10-13T06:55:19;12.10;99.90
7016;DHT22;3548;48.402;9.990;2022-10-13T06:57:44;12.10;99.90
7016;DHT22;3548;48.402;9.990;2022-10-13T07:00:10;12.20;99.90
7016;DHT22;3548;48.402;9.990;2022-10-13T07:02:36;12.30;99.90
7016;DHT22;3548;48.402;9.990;2022-10-13T07:05:02;12.40;99.90
7016;DHT22;3548;48.402;9.990;2022-10-13T07:07:27;12.50;99.90
7016;DHT22;3548;48.402;9.990;2022-10-13T07:09:53;12.60;99.90
7016;DHT22;3548;48.402;9.990;2022-10-13T07:12:19;12.60;99.90
7016;DHT22;3548;48.402;9.990;2022-10-13T07:14:45;12.70;99.90
7016;DHT22;3548;48.402;9.990;2022-10-13T07:17:10;12.70;99.90
7016;DHT22;3548;48.402;9.990;2022-10-13T07:19:36;12.70;99.90
7016;DHT22;3548;48.402;9.990;2022-10-13T07:22:01;12.70;99.90
7016;DHT22;3548;48.402;9.990;2022-10-13T07:24:27;12.70;99.90
7016;DHT22;3548;48.402;9.990;2022-10-13T07:26:52;12.70;99.90
7016;DHT22;3548;48.402;9.990;2022-10-13T07:29:18;12.70;99.90
7016;DHT22;3548;48.402;9.990;2022-10-13T07:31:44;12.70;99.90
7016;DHT22;3548;48.402;9.990;2022-10-13T07:34:10;12.80;99.90
7016;DHT22;3548;48.402;9.990;2022-10-13T07:36:36;12.80;99.90
7016;DHT22;3548;48.402;9.990;2022-10-13T07:39:05;12.90;99.90
7016;DHT22;3548;48.402;9.990;2022-10-13T07:41:31;13.00;99.90
7016;DHT22;3548;48.402;9.990;2022-10-13T07:43:57;13.00;99.90
7016;DHT22;3548;48.402;9.990;2022-10-13T07:46:23;13.10;99.90
7016;DHT22;3548;48.402;9.990;2022-10-13T07:48:51;13.20;99.90
7016;DHT22;3548;48.402;9.990;2022-10-13T07:51:17;13.20;99.90
7016;DHT22;3548;48.402;9.990;2022-10-13T07:53:42;13.20;99.90
7016;DHT22;3548;48.402;9.990;2022-10-13T07:56:10;13.40;99.90
7016;DHT22;3548;48.402;9.990;2022-10-13T07:58:37;13.60;99.90
7016;DHT22;3548;48.402;9.990;2022-10-13T08:01:03;13.60;99.90
7016;DHT22;3548;48.402;9.990;2022-10-13T08:03:29;13.70;99.90
7016;DHT22;3548;48.402;9.990;2022-10-13T08:05:58;13.90;99.90
7016;DHT22;3548;48.402;9.990;2022-10-13T08:08:24;14.00;99.90
7016;DHT22;3548;48.402;9.990;2022-10-13T08:10:49;14.20;99.90
7016;DHT22;3548;48.402;9.990;2022-10-13T08:13:15;14.40;99.90
7016;DHT22;3548;48.402;9.990;2022-10-13T08:15:42;14.50;99.90
7016;DHT22;3548;48.402;9.990;2022-10-13T08:18:09;14.70;99.90
7016;DHT22;3548;48.402;9.990;2022-10-13T08:20:39;14.80;99.90
7016;DHT22;3548;48.402;9.990;2022-10-13T08:23:04;14.90;99.90
7016;DHT22;3548;48.402;9.990;2022-10-13T08:25:38;15.00;99.90
7016;DHT22;3548;48.402;9.990;2022-10-13T08:28:05;15.00;99.90
7016;DHT22;3548;48.402;9.990;2022-10-13T08:30:31;15.10;99.90
7016;DHT22;3548;48.402;9.990;2022-10-13T08:32:56;15.20;99.90
7016;DHT22;3548;48.402;9.990;2022-10-13T08:35:22;15.30;99.90
7016;DHT22;3548;48.402;9.990;2022-10-13T08:37:47;15.40;99.90
7016;DHT22;3548;48.402;9.990;2022-10-13T08:40:16;15.50;99.90
7016;DHT22;3548;48.402;9.990;2022-10-13T08:42:43;15.60;99.90
7016;DHT22;3548;48.402;9.990;2022-10-13T08:45:27;15.60;99.90
7016;DHT22;3548;48.402;9.990;2022-10-13T08:48:02;15.60;99.90
7016;DHT22;3548;48.402;9.990;2022-10-13T08:50:32;15.60;99.90
7016;DHT22;3548;48.402;9.990;2022-10-13T08:53:03;15.50;99.90
7016;DHT22;3548;48.402;9.990;2022-10-13T08:55:48;15.50;99.90
7016;DHT22;3548;48.402;9.990;2022-10-13T08:58:21;15.50;99.90
7016;DHT22;3548;48.402;9.990;2022-10-13T09:00:54;15.60;99.90
7016;DHT22;3548;48.402;9.990;2022-10-13T09:03:25;15.70;99.90
7016;DHT22;3548;48.402;9.990;2022-10-13T09:06:10;15.70;99.90
7016;DHT22;3548;48.402;9.990;2022-10-13T09:08:43;15.80;99.90
7016;DHT22;3548;48.402;9.990;2022-10-13T09:11:12;15.80;99.90
7016;DHT22;3548;48.402;9.990;2022-10-13T09:13:38;15.80;99.90
7016;DHT22;3548;48.402;9.990;2022-10-13T09:16:04;15.80;99.90
7016;DHT22;3548;48.402;9.990;2022-10-13T09:18:31;15.80;99.90
7016;DHT22;3548;48.402;9.990;2022-10-13T09:21:22;15.90;99.90
7016;DHT22;3548;48.402;9.990;2022-10-13T09:23:50;16.00;99.90
7016;DHT22;3548;48.402;9.990;2022-10-13T09:26:24;16.20;99.90
7016;DHT22;3548;48.402;9.990;2022-10-13T09:28:51;16.40;99.90
7016;DHT22;3548;48.402;9.990;2022-10-13T09:31:26;16.50;99.90
7016;DHT22;3548;48.402;9.990;2022-10-13T09:34:10;16.60;99.90
7016;DHT22;3548;48.402;9.990;2022-10-13T09:36:37;16.60;99.90
7016;DHT22;3548;48.402;9.990;2022-10-13T09:39:10;16.60;99.90
7016;DHT22;3548;48.402;9.990;2022-10-13T09:41:38;16.60;99.90
7016;DHT22;3548;48.402;9.990;2022-10-13T09:44:25;16.60;99.90
7016;DHT22;3548;48.402;9.990;2022-10-13T09:46:53;16.60;99.90
7016;DHT22;3548;48.402;9.990;2022-10-13T09:49:33;16.60;99.90
7016;DHT22;3548;48.402;9.990;2022-10-13T09:52:20;16.50;99.90
7016;DHT22;3548;48.402;9.990;2022-10-13T09:54:48;16.50;99.90
7016;DHT22;3548;48.402;9.990;2022-10-13T09:57:28;16.40;99.90
7016;DHT22;3548;48.402;9.990;2022-10-13T10:00:18;16.40;99.90
7016;DHT22;3548;48.402;9.990;2022-10-13T10:02:51;16.40;99.90
7016;DHT22;3548;48.402;9.990;2022-10-13T10:08:25;16.40;99.90
7016;DHT22;3548;48.402;9.990;2022-10-13T10:10:52;16.40;99.90
7016;DHT22;3548;48.402;9.990;2022-10-13T10:13:18;16.40;99.90
7016;DHT22;3548;48.402;9.990;2022-10-13T10:18:43;16.50;99.90
7016;DHT22;3548;48.402;9.990;2022-10-13T10:27:00;16.60;99.90
7016;DHT22;3548;48.402;9.990;2022-10-13T10:29:41;16.60;99.90
7016;DHT22;3548;48.402;9.990;2022-10-13T10:35:18;16.90;99.90
7016;DHT22;3548;48.402;9.990;2022-10-13T10:37:56;16.90;99.90
7016;DHT22;3548;48.402;9.990;2022-10-13T10:40:31;17.00;99.90
7016;DHT22;3548;48.402;9.990;2022-10-13T10:43:23;17.00;99.90
7016;DHT22;3548;48.402;9.990;2022-10-13T10:45:50;17.00;99.90
7016;DHT22;3548;48.402;9.990;2022-10-13T10:48:17;16.90;99.90
7016;DHT22;3548;48.402;9.990;2022-10-13T10:50:44;17.00;99.90
7016;DHT22;3548;48.402;9.990;2022-10-13T10:56:14;17.00;99.90
7016;DHT22;3548;48.402;9.990;2022-10-13T11:02:09;17.00;99.90
7016;DHT22;3548;48.402;9.990;2022-10-13T11:04:45;17.00;99.90
7016;DHT22;3548;48.402;9.990;2022-10-13T11:17:29;17.00;99.90
7016;DHT22;3548;48.402;9.990;2022-10-13T11:19:55;17.10;99.90
7016;DHT22;3548;48.402;9.990;2022-10-13T11:22:25;17.10;99.90
7016;DHT22;3548;48.402;9.990;2022-10-13T11:27:43;17.20;99.90
7016;DHT22;3548;48.402;9.990;2022-10-13T11:30:39;17.20;99.90
7016;DHT22;3548;48.402;9.990;2022-10-13T11:33:44;17.30;99.90
7016;DHT22;3548;48.402;9.990;2022-10-13T11:55:04;17.40;99.90
7016;DHT22;3548;48.402;9.990;2022-10-13T11:57:31;17.30;99.90
7016;DHT22;3548;48.402;9.990;2022-10-13T11:59:57;17.30;99.90
7016;DHT22;3548;48.402;9.990;2022-10-13T12:02:24;17.20;99.90
7016;DHT22;3548;48.402;9.990;2022-10-13T12:05:20;17.20;99.90
7016;DHT22;3548;48.402;9.990;2022-10-13T12:07:47;17.30;99.90
7016;DHT22;3548;48.402;9.990;2022-10-13T12:10:22;17.40;99.90
7016;DHT22;3548;48.402;9.990;2022-10-13T12:12:49;17.30;99.90
7016;DHT22;3548;48.402;9.990;2022-10-13T12:15:35;17.30;99.90
7016;DHT22;3548;48.402;9.990;2022-10-13T12:18:21;17.40;99.90
7016;DHT22;3548;48.402;9.990;2022-10-13T12:20:52;17.30;99.90
7016;DHT22;3548;48.402;9.990;2022-10-13T12:23:18;17.30;99.90
7016;DHT22;3548;48.402;9.990;2022-10-13T12:25:48;17.30;99.90
7016;DHT22;3548;48.402;9.990;2022-10-13T12:28:18;17.30;99.90
7016;DHT22;3548;48.402;9.990;2022-10-13T12:30:53;17.20;99.90
7016;DHT22;3548;48.402;9.990;2022-10-13T12:33:32;17.30;99.90
7016;DHT22;3548;48.402;9.990;2022-10-13T12:36:20;17.30;99.90
7016;DHT22;3548;48.402;9.990;2022-10-13T12:38:49;17.30;99.90
7016;DHT22;3548;48.402;9.990;2022-10-13T12:41:25;17.30;99.90
7016;DHT22;3548;48.402;9.990;2022-10-13T12:43:52;17.30;99.90
7016;DHT22;3548;48.402;9.990;2022-10-13T12:46:48;17.30;99.90
7016;DHT22;3548;48.402;9.990;2022-10-13T12:49:27;17.30;99.90
7016;DHT22;3548;48.402;9.990;2022-10-13T12:52:22;17.30;99.90
7016;DHT22;3548;48.402;9.990;2022-10-13T12:54:53;17.40;99.90
7016;DHT22;3548;48.402;9.990;2022-10-13T12:57:36;17.30;99.90
7016;DHT22;3548;48.402;9.990;2022-10-13T13:02:58;17.30;99.90
7016;DHT22;3548;48.402;9.990;2022-10-13T13:05:39;17.30;99.90
7016;DHT22;3548;48.402;9.990;2022-10-13T13:08:24;17.40;99.90
7016;DHT22;3548;48.402;9.990;2022-10-13T13:10:55;17.30;99.90
7016;DHT22;3548;48.402;9.990;2022-10-13T13:13:22;17.30;99.90
7016;DHT22;3548;48.402;9.990;2022-10-13T13:15:48;17.20;99.90
7016;DHT22;3548;48.402;9.990;2022-10-13T13:20:47;17.10;99.90
7016;DHT22;3548;48.402;9.990;2022-10-13T13:23:13;17.10;99.90
7016;DHT22;3548;48.402;9.990;2022-10-13T13:25:43;17.10;99.90
7016;DHT22;3548;48.402;9.990;2022-10-13T13:28:10;17.10;99.90
7016;DHT22;3548;48.402;9.990;2022-10-13T13:30:37;17.20;99.90
7016;DHT22;3548;48.402;9.990;2022-10-13T13:33:02;17.20;99.90
7016;DHT22;3548;48.402;9.990;2022-10-13T13:35:28;17.30;99.90
7016;DHT22;3548;48.402;9.990;2022-10-13T13:37:54;17.40;99.90
7016;DHT22;3548;48.402;9.990;2022-10-13T13:40:22;17.50;99.90
7016;DHT22;3548;48.402;9.990;2022-10-13T13:42:48;17.60;99.90
7016;DHT22;3548;48.402;9.990;2022-10-13T13:45:15;17.70;99.90
7016;DHT22;3548;48.402;9.990;2022-10-13T13:47:41;17.70;99.90
7016;DHT22;3548;48.402;9.990;2022-10-13T13:50:22;17.70;99.90
7016;DHT22;3548;48.402;9.990;2022-10-13T13:52:48;17.60;99.90
7016;DHT22;3548;48.402;9.990;2022-10-13T13:55:14;17.60;99.90
7016;DHT22;3548;48.402;9.990;2022-10-13T13:57:41;17.60;99.90
7016;DHT22;3548;48.402;9.990;2022-10-13T14:00:07;17.60;99.90
7016;DHT22;3548;48.402;9.990;2022-10-13T14:02:33;17.50;99.90
7016;DHT22;3548;48.402;9.990;2022-10-13T14:04:58;17.50;99.90
7016;DHT22;3548;48.402;9.990;2022-10-13T14:07:24;17.50;99.90
7016;DHT22;3548;48.402;9.990;2022-10-13T14:09:50;17.40;99.90
7016;DHT22;3548;48.402;9.990;2022-10-13T14:12:15;17.50;99.90
7016;DHT22;3548;48.402;9.990;2022-10-13T14:14:41;17.60;99.90
7016;DHT22;3548;48.402;9.990;2022-10-13T14:17:07;17.70;99.90
7016;DHT22;3548;48.402;9.990;2022-10-13T14:19:32;17.70;99.90
7016;DHT22;3548;48.402;9.990;2022-10-13T14:21:58;17.60;99.90
7016;DHT22;3548;48.402;9.990;2022-10-13T14:24:26;17.60;99.90
7016;DHT22;3548;48.402;9.990;2022-10-13T14:26:51;17.50;99.90
7016;DHT22;3548;48.402;9.990;2022-10-13T14:29:17;17.40;99.90
7016;DHT22;3548;48.402;9.990;2022-10-13T14:31:42;17.40;99.90
7016;DHT22;3548;48.402;9.990;2022-10-13T14:34:08;17.40;99.90
7016;DHT22;3548;48.402;9.990;2022-10-13T14:36:34;17.30;99.90
7016;DHT22;3548;48.402;9.990;2022-10-13T14:38:59;17.20;99.90
7016;DHT22;3548;48.402;9.990;2022-10-13T14:41:25;17.10;99.90
7016;DHT22;3548;48.402;9.990;2022-10-13T14:43:51;17.00;99.90
7016;DHT22;3548;48.402;9.990;2022-10-13T14:46:18;16.90;99.90
7016;DHT22;3548;48.402;9.990;2022-10-13T14:48:44;16.80;99.90
7016;DHT22;3548;48.402;9.990;2022-10-13T14:51:10;16.80;99.90
7016;DHT22;3548;48.402;9.990;2022-10-13T14:53:37;16.80;99.90
7016;DHT22;3548;48.402;9.990;2022-10-13T14:56:19;16.80;99.90
7016;DHT22;3548;48.402;9.990;2022-10-13T14:58:46;16.80;99.90
7016;DHT22;3548;48.402;9.990;2022-10-13T15:01:12;16.80;99.90
7016;DHT22;3548;48.402;9.990;2022-10-13T15:03:38;16.80;99.90
7016;DHT22;3548;48.402;9.990;2022-10-13T15:06:04;16.80;99.90
7016;DHT22;3548;48.402;9.990;2022-10-13T15:08:29;16.70;99.90
7016;DHT22;3548;48.402;9.990;2022-10-13T15:11:02;16.70;99.90
7016;DHT22;3548;48.402;9.990;2022-10-13T15:13:28;16.70;99.90
7016;DHT22;3548;48.402;9.990;2022-10-13T15:15:55;16.60;99.90
7016;DHT22;3548;48.402;9.990;2022-10-13T15:18:21;16.60;99.90
7016;DHT22;3548;48.402;9.990;2022-10-13T15:20:48;16.50;99.90
7016;DHT22;3548;48.402;9.990;2022-10-13T15:23:14;16.50;99.90
7016;DHT22;3548;48.402;9.990;2022-10-13T15:25:48;16.50;99.90
7016;DHT22;3548;48.402;9.990;2022-10-13T15:28:14;16.40;99.90
7016;DHT22;3548;48.402;9.990;2022-10-13T15:30:39;16.40;99.90
7016;DHT22;3548;48.402;9.990;2022-10-13T15:33:05;16.40;99.90
7016;DHT22;3548;48.402;9.990;2022-10-13T15:35:30;16.40;99.90
7016;DHT22;3548;48.402;9.990;2022-10-13T15:37:57;16.40;99.90
7016;DHT22;3548;48.402;9.990;2022-10-13T15:40:22;16.30;99.90
7016;DHT22;3548;48.402;9.990;2022-10-13T15:42:48;16.30;99.90
7016;DHT22;3548;48.402;9.990;2022-10-13T15:45:14;16.20;99.90
7016;DHT22;3548;48.402;9.990;2022-10-13T15:47:39;16.20;99.90
7016;DHT22;3548;48.402;9.990;2022-10-13T15:50:06;16.10;99.90
7016;DHT22;3548;48.402;9.990;2022-10-13T15:52:36;16.10;99.90
7016;DHT22;3548;48.402;9.990;2022-10-13T15:55:02;16.00;99.90
7016;DHT22;3548;48.402;9.990;2022-10-13T15:57:29;16.00;99.90
7016;DHT22;3548;48.402;9.990;2022-10-13T15:59:55;15.90;99.90
7016;DHT22;3548;48.402;9.990;2022-10-13T16:02:20;15.90;99.90
7016;DHT22;3548;48.402;9.990;2022-10-13T16:04:47;15.90;99.90
7016;DHT22;3548;48.402;9.990;2022-10-13T16:07:13;15.80;99.90
7016;DHT22;3548;48.402;9.990;2022-10-13T16:09:38;15.80;99.90
7016;DHT22;3548;48.402;9.990;2022-10-13T16:12:04;15.70;99.90
7016;DHT22;3548;48.402;9.990;2022-10-13T16:14:30;15.70;99.90
7016;DHT22;3548;48.402;9.990;2022-10-13T16:16:55;15.60;99.90
7016;DHT22;3548;48.402;9.990;2022-10-13T16:19:21;15.60;99.90
7016;DHT22;3548;48.402;9.990;2022-10-13T16:21:46;15.60;99.90
7016;DHT22;3548;48.402;9.990;2022-10-13T16:24:12;15.60;99.90
7016;DHT22;3548;48.402;9.990;2022-10-13T16:26:37;15.60;99.90
7016;DHT22;3548;48.402;9.990;2022-10-13T16:29:03;15.60;99.90
7016;DHT22;3548;48.402;9.990;2022-10-13T16:31:28;15.50;99.90
7016;DHT22;3548;48.402;9.990;2022-10-13T16:33:54;15.50;99.90
7016;DHT22;3548;48.402;9.990;2022-10-13T16:36:20;15.40;99.90
7016;DHT22;3548;48.402;9.990;2022-10-13T16:38:47;15.40;99.90
7016;DHT22;3548;48.402;9.990;2022-10-13T16:41:15;15.40;99.90
7016;DHT22;3548;48.402;9.990;2022-10-13T16:43:41;15.40;99.90
7016;DHT22;3548;48.402;9.990;2022-10-13T16:46:10;15.30;99.90
7016;DHT22;3548;48.402;9.990;2022-10-13T16:48:38;15.30;99.90
7016;DHT22;3548;48.402;9.990;2022-10-13T16:51:05;15.30;99.90
7016;DHT22;3548;48.402;9.990;2022-10-13T16:53:31;15.20;99.90
7016;DHT22;3548;48.402;9.990;2022-10-13T16:55:57;15.20;99.90
7016;DHT22;3548;48.402;9.990;2022-10-13T16:58:22;15.20;99.90
7016;DHT22;3548;48.402;9.990;2022-10-13T17:00:48;15.20;99.90
7016;DHT22;3548;48.402;9.990;2022-10-13T17:03:13;15.20;99.90
7016;DHT22;3548;48.402;9.990;2022-10-13T17:05:39;15.10;99.90
7016;DHT22;3548;48.402;9.990;2022-10-13T17:08:05;15.20;99.90
7016;DHT22;3548;48.402;9.990;2022-10-13T17:10:30;15.10;99.90
7016;DHT22;3548;48.402;9.990;2022-10-13T17:12:57;15.10;99.90
7016;DHT22;3548;48.402;9.990;2022-10-13T17:15:22;15.10;99.90
7016;DHT22;3548;48.402;9.990;2022-10-13T17:17:48;15.10;99.90
7016;DHT22;3548;48.402;9.990;2022-10-13T17:20:14;15.10;99.90
7016;DHT22;3548;48.402;9.990;2022-10-13T17:22:39;15.00;99.90
7016;DHT22;3548;48.402;9.990;2022-10-13T17:25:06;15.00;99.90
7016;DHT22;3548;48.402;9.990;2022-10-13T17:27:34;15.00;99.90